createdAt,value
2017-08-20T00:02:53.491Z,3.97
2017-08-20T00:05:55.631Z,4.27
2017-08-20T00:08:57.047Z,4.10
2017-08-20T00:11:58.392Z,3.17
2017-08-20T00:14:59.755Z,2.70
2017-08-20T00:18:01.091Z,2.97
2017-08-20T00:21:02.471Z,4.10
2017-08-20T00:24:03.864Z,4.03
2017-08-20T00:27:06.035Z,4.07
2017-08-20T00:30:08.160Z,3.30
2017-08-20T00:33:09.563Z,3.40
2017-08-20T00:36:11.715Z,3.33
2017-08-20T00:39:13.084Z,3.50
2017-08-20T00:42:15.218Z,4.53
2017-08-20T00:45:16.612Z,3.50
2017-08-20T00:48:18.037Z,3.10
2017-08-20T00:51:19.380Z,3.97
2017-08-20T00:54:20.858Z,3.00
2017-08-20T00:57:23.041Z,3.60
2017-08-20T01:00:24.443Z,3.40
2017-08-20T01:03:25.893Z,4.20
2017-08-20T01:06:27.244Z,3.23
2017-08-20T01:09:28.632Z,3.17
2017-08-20T01:12:29.983Z,3.30
2017-08-20T01:15:31.349Z,2.83
2017-08-20T01:18:32.742Z,3.30
2017-08-20T01:21:34.183Z,3.53
2017-08-20T01:24:35.526Z,3.03
2017-08-20T01:27:36.861Z,2.77
2017-08-20T01:30:38.296Z,3.30
2017-08-20T01:33:39.629Z,2.83
2017-08-20T01:36:41.744Z,2.93
2017-08-20T01:39:43.089Z,2.97
2017-08-20T01:42:44.458Z,2.60
2017-08-20T01:45:45.908Z,3.60
2017-08-20T01:48:47.265Z,2.90
2017-08-20T01:51:48.677Z,2.93
2017-08-20T01:54:50.083Z,3.60
2017-08-20T01:57:51.465Z,3.37
2017-08-20T02:00:53.582Z,4.10
2017-08-20T02:03:54.922Z,2.60
2017-08-20T02:06:56.385Z,2.70
2017-08-20T02:09:57.789Z,3.20
2017-08-20T02:12:59.181Z,3.53
2017-08-20T02:16:00.558Z,3.20
2017-08-20T02:19:01.947Z,4.20
2017-08-20T02:22:03.336Z,3.43
2017-08-20T02:25:04.709Z,3.83
2017-08-20T02:28:06.030Z,4.00
2017-08-20T02:31:07.453Z,3.97
2017-08-20T02:34:08.878Z,4.27
2017-08-20T02:37:10.997Z,3.37
2017-08-20T02:40:12.366Z,5.17
2017-08-20T02:43:13.719Z,3.33
2017-08-20T02:46:15.137Z,3.67
2017-08-20T02:49:16.491Z,3.23
2017-08-20T02:52:17.916Z,4.07
2017-08-20T02:55:20.154Z,3.73
2017-08-20T02:58:21.552Z,5.67
2017-08-20T03:01:22.963Z,4.30
2017-08-20T03:04:24.352Z,4.17
2017-08-20T03:07:25.771Z,5.33
2017-08-20T03:10:27.155Z,5.73
2017-08-20T03:13:28.573Z,4.77
2017-08-20T03:16:30.007Z,5.40
2017-08-20T03:19:31.379Z,5.50
2017-08-20T03:22:33.514Z,5.17
2017-08-20T03:25:34.848Z,5.73
2017-08-20T03:28:36.274Z,6.10
2017-08-20T03:31:37.674Z,6.03
2017-08-20T03:34:39.061Z,5.57
2017-08-20T03:37:40.457Z,5.60
2017-08-20T03:40:41.899Z,6.20
2017-08-20T03:43:43.244Z,7.53
2017-08-20T03:46:44.603Z,7.20
2017-08-20T03:49:45.951Z,7.20
2017-08-20T03:52:47.341Z,6.50
2017-08-20T03:55:48.752Z,6.70
2017-08-20T03:58:50.152Z,6.00
2017-08-20T04:01:51.546Z,6.27
2017-08-20T04:04:52.946Z,6.83
2017-08-20T04:07:54.314Z,6.47
2017-08-20T04:10:56.462Z,6.17
2017-08-20T04:13:57.861Z,7.73
2017-08-20T04:16:59.204Z,7.53
2017-08-20T04:20:00.601Z,6.57
2017-08-20T04:23:01.969Z,6.60
2017-08-20T04:26:03.402Z,6.50
2017-08-20T04:29:04.817Z,6.47
2017-08-20T04:32:06.214Z,6.10
2017-08-20T04:35:07.603Z,7.17
2017-08-20T04:38:09.753Z,6.27
2017-08-20T04:41:11.213Z,7.30
2017-08-20T04:44:13.343Z,7.00
2017-08-20T04:47:14.708Z,6.60
2017-08-20T04:50:16.084Z,6.27
2017-08-20T04:53:17.434Z,6.20
2017-08-20T04:56:18.834Z,8.90
2017-08-20T04:59:20.251Z,7.67
2017-08-20T05:02:22.356Z,7.23
2017-08-20T05:05:23.761Z,9.00
2017-08-20T05:08:26.043Z,9.10
2017-08-20T05:11:28.171Z,8.70
2017-08-20T05:14:29.530Z,8.20
2017-08-20T05:17:30.864Z,8.83
2017-08-20T05:20:32.258Z,8.80
2017-08-20T05:23:34.371Z,8.87
2017-08-20T05:26:35.775Z,9.23
2017-08-20T05:29:37.894Z,10.27
2017-08-20T05:32:39.263Z,10.50
2017-08-20T05:35:40.678Z,10.40
2017-08-20T05:38:42.077Z,11.87
2017-08-20T05:41:44.223Z,10.10
2017-08-20T05:44:45.646Z,10.23
2017-08-20T05:47:47.029Z,11.80
2017-08-20T05:50:48.435Z,10.30
2017-08-20T05:53:49.850Z,12.60
2017-08-20T05:56:51.281Z,12.17
2017-08-20T05:59:52.732Z,13.20
2017-08-20T06:02:54.162Z,15.70
2017-08-20T06:05:55.555Z,14.10
2017-08-20T06:08:57.115Z,16.23
2017-08-20T06:11:59.311Z,15.83
2017-08-20T06:15:00.700Z,17.13
2017-08-20T06:18:02.154Z,17.07
2017-08-20T06:21:03.612Z,17.20
2017-08-20T06:24:05.125Z,18.20
2017-08-20T06:27:06.480Z,17.00
2017-08-20T06:30:07.953Z,17.33
2017-08-20T06:33:09.346Z,17.50
2017-08-20T06:36:10.789Z,17.03
2017-08-20T06:39:12.158Z,18.30
2017-08-20T06:42:13.565Z,17.53
2017-08-20T06:45:15.053Z,16.33
2017-08-20T06:48:16.579Z,16.80
2017-08-20T06:51:18.009Z,17.73
2017-08-20T06:54:19.443Z,17.87
2017-08-20T06:57:20.892Z,16.77
2017-08-20T07:00:22.274Z,15.27
2017-08-20T07:03:23.838Z,16.60
2017-08-20T07:06:26.178Z,16.20
2017-08-20T07:09:27.693Z,18.00
2017-08-20T07:12:29.081Z,18.10
2017-08-20T07:15:30.555Z,19.30
2017-08-20T07:18:31.952Z,17.40
2017-08-20T07:21:33.340Z,18.00
2017-08-20T07:24:34.693Z,18.93
2017-08-20T07:27:36.020Z,19.50
2017-08-20T07:30:37.403Z,18.57
2017-08-20T07:33:38.741Z,19.47
2017-08-20T07:36:40.119Z,19.43
2017-08-20T07:39:41.447Z,18.90
2017-08-20T07:42:42.851Z,17.53
2017-08-20T07:45:44.219Z,17.53
2017-08-20T07:48:46.346Z,16.93
2017-08-20T07:51:47.773Z,18.03
2017-08-20T07:54:49.119Z,16.63
2017-08-20T07:57:50.520Z,15.43
2017-08-20T08:00:51.899Z,15.20
2017-08-20T08:03:53.311Z,14.50
2017-08-20T08:06:54.734Z,14.30
2017-08-20T08:09:56.131Z,14.70
2017-08-20T08:12:57.546Z,13.87
2017-08-20T08:15:58.867Z,15.00
2017-08-20T08:19:01.148Z,13.17
2017-08-20T08:22:02.543Z,14.13
2017-08-20T08:25:03.909Z,12.90
2017-08-20T08:28:05.268Z,13.37
2017-08-20T08:31:06.667Z,12.80
2017-08-20T08:34:08.015Z,12.03
2017-08-20T08:37:09.405Z,11.40
2017-08-20T08:40:10.807Z,11.47
2017-08-20T08:43:12.164Z,13.60
2017-08-20T08:46:13.567Z,10.97
2017-08-20T08:49:14.887Z,9.77
2017-08-20T08:52:16.252Z,10.33
2017-08-20T08:55:17.655Z,9.50
2017-08-20T08:58:19.058Z,9.47
2017-08-20T09:01:20.418Z,7.60
2017-08-20T09:04:21.787Z,9.83
2017-08-20T09:07:23.883Z,7.37
2017-08-20T09:10:25.218Z,6.40
2017-08-20T09:13:26.599Z,5.20
2017-08-20T09:16:27.947Z,6.20
2017-08-20T09:19:29.313Z,5.53
2017-08-20T09:22:30.701Z,4.80
2017-08-20T09:25:32.826Z,4.40
2017-08-20T09:28:34.168Z,4.47
2017-08-20T09:31:35.556Z,5.97
2017-08-20T09:34:37.014Z,4.87
2017-08-20T09:37:38.367Z,4.10
2017-08-20T09:40:39.720Z,3.90
2017-08-20T09:43:41.047Z,4.03
2017-08-20T09:46:42.425Z,3.20
2017-08-20T09:49:44.485Z,2.73
2017-08-20T09:52:45.853Z,3.30
2017-08-20T09:55:47.986Z,3.47
2017-08-20T09:58:49.372Z,3.07
2017-08-20T10:01:51.464Z,3.33
2017-08-20T10:04:52.830Z,2.77
2017-08-20T10:07:54.183Z,3.10
2017-08-20T10:10:55.608Z,2.57
2017-08-20T10:13:56.944Z,3.60
2017-08-20T10:16:58.325Z,2.90
2017-08-20T10:20:00.146Z,2.87
2017-08-20T10:23:02.218Z,3.10
2017-08-20T10:26:04.344Z,3.10
2017-08-20T10:29:05.707Z,3.10
2017-08-20T10:32:07.076Z,3.60
2017-08-20T10:35:09.190Z,3.70
2017-08-20T10:38:10.549Z,4.07
2017-08-20T10:41:11.946Z,3.70
2017-08-20T10:44:13.307Z,3.30
2017-08-20T10:47:15.438Z,3.17
2017-08-20T10:50:16.772Z,3.57
2017-08-20T10:53:18.158Z,3.97
2017-08-20T10:56:19.565Z,4.50
2017-08-20T10:59:20.932Z,2.73
2017-08-20T11:02:22.296Z,3.00
2017-08-20T11:05:23.641Z,3.33
2017-08-20T11:08:24.988Z,3.00
2017-08-20T11:11:26.332Z,2.63
2017-08-20T11:14:27.729Z,3.70
2017-08-20T11:17:29.781Z,2.97
2017-08-20T11:20:31.181Z,3.97
2017-08-20T11:23:32.515Z,3.53
2017-08-20T11:26:33.889Z,3.00
2017-08-20T11:29:35.245Z,2.13
2017-08-20T11:32:36.595Z,2.70
2017-08-20T11:35:37.994Z,2.67
2017-08-20T11:38:39.352Z,2.53
2017-08-20T11:41:41.500Z,3.63
2017-08-20T11:44:42.870Z,2.60
2017-08-20T11:47:44.275Z,2.00
2017-08-20T11:50:45.943Z,2.47
2017-08-20T11:53:47.289Z,3.30
2017-08-20T11:56:48.720Z,2.57
2017-08-20T11:59:50.086Z,3.10
2017-08-20T12:02:51.502Z,2.20
2017-08-20T12:05:52.856Z,2.37
2017-08-20T12:08:54.252Z,2.80
2017-08-20T12:11:55.596Z,3.47
2017-08-20T12:14:57.029Z,2.60
2017-08-20T12:17:58.436Z,3.00
2017-08-20T12:21:00.500Z,3.00
2017-08-20T12:24:02.606Z,2.60
2017-08-20T12:27:03.944Z,2.60
2017-08-20T12:30:06.238Z,3.03
2017-08-20T12:33:07.728Z,2.93
2017-08-20T12:36:09.405Z,2.63
2017-08-20T12:39:10.819Z,2.53
2017-08-20T12:42:12.436Z,2.40
2017-08-20T12:45:23.767Z,2.30
2017-08-20T12:48:25.182Z,2.67
2017-08-20T12:51:26.854Z,2.40
2017-08-20T12:54:28.254Z,3.67
2017-08-20T12:57:30.686Z,2.97
2017-08-20T13:00:32.031Z,2.40
2017-08-20T13:03:33.434Z,3.13
2017-08-20T13:06:35.725Z,5.43
2017-08-20T13:09:37.123Z,3.07
2017-08-20T13:12:38.515Z,3.63
2017-08-20T13:15:40.675Z,3.00
2017-08-20T13:18:42.914Z,2.83
2017-08-20T13:21:44.416Z,2.67
2017-08-20T13:24:45.888Z,2.30
2017-08-20T13:27:47.188Z,2.10
2017-08-20T13:30:48.563Z,2.27
2017-08-20T13:33:50.922Z,2.50
2017-08-20T13:36:53.140Z,2.57
2017-08-20T13:39:54.519Z,2.47
2017-08-20T13:42:55.965Z,2.50
2017-08-20T13:45:57.347Z,2.47
2017-08-20T13:48:58.784Z,2.67
2017-08-20T13:52:00.288Z,2.50
2017-08-20T13:55:01.768Z,2.40
2017-08-20T13:58:03.677Z,2.90
2017-08-20T14:01:05.037Z,2.73
2017-08-20T14:04:06.443Z,3.23
2017-08-20T14:07:08.149Z,2.67
2017-08-20T14:10:10.637Z,11.13
2017-08-20T14:13:12.244Z,47.00
2017-08-20T14:16:13.823Z,12.20
2017-08-20T14:19:15.307Z,4.10
2017-08-20T14:22:16.717Z,7.13
2017-08-20T14:25:18.097Z,3.43
2017-08-20T14:28:19.616Z,6.83
2017-08-20T14:31:21.193Z,2.47
2017-08-20T14:34:24.474Z,2.50
2017-08-20T14:37:25.962Z,4.47
2017-08-20T14:40:27.308Z,2.77
2017-08-20T14:43:29.074Z,3.13
2017-08-20T14:46:30.576Z,3.43
2017-08-20T14:49:32.197Z,4.43
2017-08-20T14:52:33.652Z,6.30
2017-08-20T14:55:35.084Z,3.27
2017-08-20T14:58:36.581Z,3.30
2017-08-20T15:01:38.000Z,4.20
2017-08-20T15:04:39.552Z,3.80
2017-08-20T15:07:41.528Z,4.60
2017-08-20T15:10:42.900Z,4.90
2017-08-20T15:13:44.251Z,6.63
2017-08-20T15:16:45.588Z,6.77
2017-08-20T15:19:46.980Z,12.87
2017-08-20T15:22:48.324Z,9.93
2017-08-20T15:25:49.669Z,4.37
2017-08-20T15:28:51.206Z,4.20
2017-08-20T15:31:52.933Z,3.80
2017-08-20T15:34:54.298Z,5.00
2017-08-20T15:37:55.751Z,6.00
2017-08-20T15:40:57.136Z,5.07
2017-08-20T15:43:58.607Z,4.90
2017-08-20T15:47:00.772Z,5.90
2017-08-20T15:50:02.289Z,5.10
2017-08-20T15:53:03.950Z,12.50
2017-08-20T15:56:05.429Z,13.10
2017-08-20T15:59:06.936Z,10.97
2017-08-20T16:02:08.327Z,11.10
2017-08-20T16:05:09.696Z,12.40
2017-08-20T16:08:11.857Z,5.70
2017-08-20T16:11:13.240Z,4.60
2017-08-20T16:14:14.953Z,3.53
2017-08-20T16:17:16.366Z,4.07
2017-08-20T16:20:17.824Z,6.97
2017-08-20T16:23:19.205Z,3.77
2017-08-20T16:26:20.967Z,3.70
2017-08-20T16:29:26.838Z,4.90
2017-08-20T16:32:28.605Z,4.10
2017-08-20T16:35:30.775Z,5.80
2017-08-20T16:38:32.431Z,7.40
2017-08-20T16:41:34.058Z,4.40
2017-08-20T16:44:35.669Z,3.87
2017-08-20T16:47:37.105Z,3.67
2017-08-20T16:50:38.467Z,4.27
2017-08-20T16:53:40.315Z,3.50
2017-08-20T16:56:41.905Z,3.90
2017-08-20T16:59:43.500Z,4.13
2017-08-20T17:02:44.929Z,3.57
2017-08-20T17:05:46.761Z,3.40
2017-08-20T17:08:48.221Z,5.70
2017-08-20T17:11:49.651Z,3.70
2017-08-20T17:14:51.101Z,4.90
2017-08-20T17:17:52.473Z,7.10
2017-08-20T17:20:53.936Z,6.43
2017-08-20T17:23:55.331Z,6.17
2017-08-20T17:26:57.401Z,12.97
2017-08-20T17:29:59.527Z,64.20
2017-08-20T17:33:00.870Z,8.07
2017-08-20T17:36:02.276Z,27.40
2017-08-20T17:39:03.850Z,66.47
2017-08-20T17:42:05.181Z,43.83
2017-08-20T17:45:07.346Z,22.33
2017-08-20T17:48:09.428Z,4.73
2017-08-20T17:51:10.826Z,48.47
2017-08-20T17:54:13.492Z,13.40
2017-08-20T17:57:15.343Z,19.87
2017-08-20T18:00:17.121Z,22.80
2017-08-20T18:03:19.529Z,7.13
2017-08-20T18:06:22.257Z,22.17
2017-08-20T18:09:24.821Z,26.53
2017-08-20T18:12:26.280Z,4.67
2017-08-20T18:15:28.647Z,10.40
2017-08-20T18:18:31.248Z,11.90
2017-08-20T18:21:34.482Z,4.30
2017-08-20T18:24:38.569Z,9.23
2017-08-20T18:27:41.040Z,4.43
2017-08-20T18:30:42.390Z,8.67
2017-08-20T18:33:45.442Z,3.70
2017-08-20T18:36:50.716Z,4.30
2017-08-20T18:39:53.707Z,5.27
2017-08-20T18:42:55.237Z,6.20
2017-08-20T18:45:57.506Z,3.90
2017-08-20T18:48:58.903Z,6.90
2017-08-20T18:52:01.184Z,3.43
2017-08-20T18:55:02.766Z,3.50
2017-08-20T18:58:05.516Z,3.90
2017-08-20T19:01:08.168Z,3.00
2017-08-20T19:04:13.103Z,4.30
2017-08-20T19:07:15.416Z,3.80
2017-08-20T19:10:17.592Z,3.30
2017-08-20T19:13:19.019Z,3.17
2017-08-20T19:16:20.418Z,2.87
2017-08-20T19:19:21.807Z,3.90
2017-08-20T19:22:26.022Z,4.10
2017-08-20T19:25:28.169Z,4.60
2017-08-20T19:28:30.958Z,4.50
2017-08-20T19:31:33.678Z,3.50
2017-08-20T19:34:36.462Z,3.63
2017-08-20T19:37:37.994Z,3.47
2017-08-20T19:40:40.758Z,3.37
2017-08-20T19:43:43.119Z,2.83
2017-08-20T19:46:44.858Z,2.60
2017-08-20T19:49:47.007Z,3.10
2017-08-20T19:52:48.463Z,29.00
2017-08-20T19:55:51.668Z,5.87
2017-08-20T19:58:53.829Z,3.00
2017-08-20T20:01:55.369Z,3.20
2017-08-20T20:04:57.506Z,3.33
2017-08-20T20:07:59.081Z,3.53
2017-08-20T20:11:00.666Z,3.20
2017-08-20T20:14:02.201Z,3.30
2017-08-20T20:17:04.231Z,3.57
2017-08-20T20:20:05.935Z,2.77
2017-08-20T20:23:08.363Z,2.47
2017-08-20T20:26:10.011Z,3.57
2017-08-20T20:29:11.591Z,4.20
2017-08-20T20:32:13.223Z,3.30
2017-08-20T20:35:14.750Z,3.37
2017-08-20T20:38:17.083Z,3.00
2017-08-20T20:41:18.649Z,5.20
2017-08-20T20:44:20.256Z,6.00
2017-08-20T20:47:21.835Z,3.83
2017-08-20T20:50:23.409Z,3.67
2017-08-20T20:53:24.939Z,3.83
2017-08-20T20:56:26.420Z,3.10
2017-08-20T20:59:28.097Z,3.57
2017-08-20T21:02:29.670Z,2.87
2017-08-20T21:05:31.942Z,4.07
2017-08-20T21:08:34.164Z,3.70
2017-08-20T21:11:35.680Z,3.20
2017-08-20T21:14:37.136Z,3.03
2017-08-20T21:17:38.813Z,3.00
2017-08-20T21:20:40.292Z,3.53
2017-08-20T21:23:41.824Z,3.67
2017-08-20T21:26:43.519Z,3.00
2017-08-20T21:29:45.759Z,4.00
2017-08-20T21:32:47.393Z,3.20
2017-08-20T21:35:48.944Z,3.80
2017-08-20T21:38:50.337Z,3.40
2017-08-20T21:41:51.917Z,3.40
2017-08-20T21:44:53.393Z,3.00
2017-08-20T21:47:55.664Z,3.57
2017-08-20T21:50:57.158Z,3.67
2017-08-20T21:53:58.637Z,4.20
2017-08-20T21:57:00.123Z,2.77
2017-08-20T22:00:03.441Z,3.97
2017-08-20T22:03:04.873Z,3.40
2017-08-20T22:06:07.380Z,3.87
2017-08-20T22:09:08.791Z,3.60
2017-08-20T22:12:11.073Z,3.23
2017-08-20T22:15:13.309Z,4.00
2017-08-20T22:18:14.898Z,2.90
2017-08-20T22:21:16.395Z,3.40
2017-08-20T22:24:17.878Z,3.87
2017-08-20T22:27:19.458Z,3.50
2017-08-20T22:30:21.633Z,3.20
2017-08-20T22:33:23.235Z,3.77
2017-08-20T22:36:24.840Z,3.63
2017-08-20T22:39:26.405Z,2.87
2017-08-20T22:42:27.926Z,2.80
2017-08-20T22:45:29.414Z,3.37
2017-08-20T22:48:30.921Z,3.27
2017-08-20T22:51:32.437Z,2.63
2017-08-20T22:54:33.909Z,3.10
2017-08-20T22:57:35.438Z,2.60
2017-08-20T23:00:36.969Z,3.10
2017-08-20T23:03:38.421Z,3.43
2017-08-20T23:06:40.687Z,3.60
2017-08-20T23:09:42.956Z,2.97
2017-08-20T23:12:44.498Z,3.60
2017-08-20T23:15:46.801Z,3.67
2017-08-20T23:18:49.008Z,3.23
2017-08-20T23:21:50.489Z,3.20
2017-08-20T23:24:52.125Z,3.50
2017-08-20T23:27:53.689Z,3.37
2017-08-20T23:30:55.214Z,3.03
2017-08-20T23:33:56.692Z,3.50
2017-08-20T23:36:58.287Z,4.00
2017-08-20T23:39:59.789Z,3.37
2017-08-20T23:43:01.299Z,3.03
2017-08-20T23:46:03.525Z,3.10
2017-08-20T23:49:05.258Z,3.50
2017-08-20T23:52:06.718Z,3.00
2017-08-20T23:55:08.206Z,3.40
2017-08-20T23:58:09.732Z,2.80
